createdAt,value
2022-08-29T07:40:37.673Z,25.60
2022-08-29T07:43:11.102Z,26.10
2022-08-29T07:45:40.037Z,26.20
2022-08-29T07:48:19.930Z,26.60
2022-08-29T07:50:52.496Z,27.20
2022-08-29T07:53:22.140Z,27.60
2022-08-29T07:55:49.223Z,28.10
2022-08-29T07:58:16.336Z,27.40
2022-08-29T08:00:43.365Z,28.00
2022-08-29T08:03:11.248Z,28.30
2022-08-29T08:05:38.370Z,29.00
2022-08-29T08:08:09.033Z,28.60
2022-08-29T08:10:42.574Z,28.40
2022-08-29T08:13:09.562Z,28.00
2022-08-29T08:15:38.979Z,28.30
2022-08-29T08:18:06.487Z,29.00
2022-08-29T08:20:33.895Z,29.60
2022-08-29T08:23:00.880Z,29.80
2022-08-29T08:25:28.109Z,30.20
2022-08-29T08:27:55.889Z,29.60
2022-08-29T08:30:22.821Z,28.60
2022-08-29T08:32:54.914Z,28.70
2022-08-29T08:35:22.978Z,29.20
2022-08-29T08:37:50.008Z,30.30
2022-08-29T08:40:23.135Z,30.50
2022-08-29T08:42:50.734Z,30.30
2022-08-29T08:45:26.794Z,30.80
2022-08-29T08:48:02.944Z,30.60
2022-08-29T08:50:54.963Z,31.20
2022-08-29T08:53:40.813Z,32.70
2022-08-29T08:56:25.845Z,32.30
2022-08-29T08:58:57.817Z,31.80
2022-08-29T09:01:56.478Z,31.20
2022-08-29T09:04:33.259Z,30.60
2022-08-29T09:07:18.179Z,32.50
2022-08-29T09:10:13.987Z,31.80
2022-08-29T09:12:51.402Z,31.30
2022-08-29T09:15:23.572Z,33.50
2022-08-29T09:17:52.813Z,34.10
2022-08-29T09:20:28.968Z,34.00
2022-08-29T09:23:27.321Z,32.20
2022-08-29T09:25:54.378Z,31.80
2022-08-29T09:28:21.764Z,31.70
2022-08-29T09:31:16.750Z,32.80
2022-08-29T09:33:50.507Z,33.20
2022-08-29T09:36:42.060Z,33.10
2022-08-29T09:39:28.562Z,33.50
2022-08-29T09:41:59.872Z,34.30
2022-08-29T09:44:26.654Z,34.70
2022-08-29T09:47:13.179Z,34.00
2022-08-29T09:49:59.371Z,34.50
2022-08-29T09:52:26.278Z,33.50
2022-08-29T09:54:53.180Z,34.20
2022-08-29T09:57:25.073Z,33.80
2022-08-29T10:00:13.711Z,31.60
2022-08-29T10:02:46.388Z,30.30
2022-08-29T10:05:35.696Z,30.40
2022-08-29T10:08:05.747Z,30.90
2022-08-29T10:10:36.496Z,30.40
2022-08-29T10:13:29.178Z,29.70
2022-08-29T10:16:01.776Z,30.00
2022-08-29T10:18:49.917Z,30.90
2022-08-29T10:21:27.485Z,31.90
2022-08-29T10:23:59.882Z,32.00
2022-08-29T10:26:32.603Z,32.50
2022-08-29T10:29:31.875Z,32.90
2022-08-29T10:32:16.932Z,33.10
2022-08-29T10:35:02.003Z,33.40
2022-08-29T10:37:49.845Z,34.30
2022-08-29T10:40:49.491Z,33.90
2022-08-29T10:43:31.944Z,32.90
2022-08-29T10:46:16.594Z,32.00
2022-08-29T10:49:13.658Z,31.40
2022-08-29T10:52:05.804Z,31.80
2022-08-29T10:54:37.655Z,32.20
2022-08-29T10:57:06.481Z,32.60
2022-08-29T10:59:36.961Z,31.40
2022-08-29T11:02:27.355Z,30.20
2022-08-29T11:04:58.144Z,28.40
2022-08-29T11:07:28.603Z,27.90
2022-08-29T11:10:00.922Z,27.60
2022-08-29T11:12:33.981Z,27.70
2022-08-29T11:15:31.072Z,27.80
2022-08-29T11:18:15.528Z,27.50
2022-08-29T11:21:03.906Z,27.50
2022-08-29T11:23:42.949Z,27.00
2022-08-29T11:26:18.558Z,27.20
2022-08-29T11:29:07.372Z,27.70
2022-08-29T11:32:02.038Z,27.40
2022-08-29T11:34:40.676Z,27.60
2022-08-29T11:37:38.531Z,28.90
2022-08-29T11:41:26.255Z,30.50
2022-08-29T11:43:39.714Z,31.50
2022-08-29T11:46:10.024Z,33.60
2022-08-29T11:48:47.229Z,33.10
2022-08-29T11:51:36.554Z,33.10
2022-08-29T11:54:25.328Z,34.20
2022-08-29T11:57:01.627Z,33.10
2022-08-29T11:59:54.715Z,34.30
2022-08-29T12:02:27.982Z,34.50
2022-08-29T12:05:03.343Z,34.10
2022-08-29T12:07:49.047Z,34.90
2022-08-29T12:10:24.660Z,35.90
2022-08-29T12:13:03.483Z,35.70
2022-08-29T12:15:30.260Z,35.70
2022-08-29T12:18:02.431Z,36.30
2022-08-29T12:20:30.349Z,36.60
2022-08-29T12:23:15.622Z,37.10
2022-08-29T12:26:04.100Z,37.90
2022-08-29T12:28:47.694Z,37.30
2022-08-29T12:31:51.446Z,36.30
2022-08-29T12:34:57.723Z,33.70
2022-08-29T12:37:36.538Z,32.10
2022-08-29T12:40:34.541Z,32.10
2022-08-29T12:43:29.993Z,32.10
2022-08-29T12:45:57.868Z,32.30
2022-08-29T12:48:30.177Z,32.20
2022-08-29T12:50:57.106Z,32.30
2022-08-29T12:53:26.287Z,32.30
2022-08-29T12:55:58.150Z,34.00
2022-08-29T12:58:36.703Z,34.20
2022-08-29T13:01:06.872Z,35.00
2022-08-29T13:03:33.776Z,36.20
2022-08-29T13:06:08.411Z,36.10
2022-08-29T13:08:39.362Z,36.10
2022-08-29T13:11:09.968Z,35.20
2022-08-29T13:13:37.992Z,34.90
2022-08-29T13:16:08.545Z,33.80
2022-08-29T13:18:53.617Z,33.60
2022-08-29T13:21:32.369Z,32.90
2022-08-29T13:24:13.541Z,31.70
2022-08-29T13:26:50.655Z,31.00
2022-08-29T13:29:38.955Z,30.70
2022-08-29T13:32:26.552Z,32.10
2022-08-29T13:35:04.044Z,33.20
2022-08-29T13:38:12.395Z,33.90
2022-08-29T13:40:56.819Z,35.70
2022-08-29T13:43:45.853Z,35.60
2022-08-29T13:46:18.308Z,36.10
2022-08-29T13:48:45.503Z,36.30
2022-08-29T13:51:12.731Z,36.60
2022-08-29T13:53:39.804Z,36.90
2022-08-29T13:56:22.452Z,36.90
2022-08-29T13:58:49.630Z,36.80
2022-08-29T14:01:30.171Z,36.60
2022-08-29T14:04:01.275Z,36.10
2022-08-29T14:06:33.817Z,35.50
2022-08-29T14:09:01.937Z,34.80
2022-08-29T14:11:29.167Z,36.10
2022-08-29T14:13:56.000Z,35.50
2022-08-29T14:16:23.292Z,35.60
2022-08-29T14:18:50.212Z,35.00
2022-08-29T14:21:17.532Z,35.20
2022-08-29T14:23:44.392Z,35.30
2022-08-29T14:26:11.317Z,34.40
2022-08-29T14:28:40.771Z,33.70
2022-08-29T14:31:09.000Z,34.50
2022-08-29T14:33:35.923Z,34.90
2022-08-29T14:36:03.509Z,34.10
2022-08-29T14:38:31.188Z,34.50
2022-08-29T14:40:58.318Z,33.60
2022-08-29T14:43:25.200Z,33.60
2022-08-29T14:45:52.069Z,33.60
2022-08-29T14:48:19.126Z,33.00
2022-08-29T14:50:46.087Z,32.40
2022-08-29T14:53:12.902Z,31.60
2022-08-29T14:55:39.883Z,30.20
2022-08-29T14:58:06.728Z,29.30
2022-08-29T15:00:34.138Z,29.80
2022-08-29T15:03:01.499Z,30.40
2022-08-29T15:05:28.737Z,30.40
2022-08-29T15:07:55.797Z,30.90
2022-08-29T15:10:24.679Z,31.50
2022-08-29T15:12:52.255Z,31.50
2022-08-29T15:15:21.364Z,31.60
2022-08-29T15:17:48.202Z,31.80
2022-08-29T15:23:02.026Z,31.50
2022-08-29T15:25:28.931Z,31.10
2022-08-29T15:27:55.742Z,31.60
2022-08-29T15:30:25.607Z,31.50
2022-08-29T15:32:52.639Z,32.20
2022-08-29T15:35:19.785Z,31.60
2022-08-29T15:37:46.649Z,31.80
2022-08-29T15:40:14.405Z,31.80
2022-08-29T15:42:41.504Z,31.40
2022-08-29T15:45:10.586Z,31.50
2022-08-29T15:47:39.427Z,31.50
2022-08-29T15:50:08.318Z,32.00
2022-08-29T15:52:36.394Z,32.10
2022-08-29T15:55:04.483Z,32.00
2022-08-29T15:57:31.371Z,31.60
2022-08-29T15:59:59.056Z,30.80
2022-08-29T16:02:33.198Z,29.70
2022-08-29T16:05:02.095Z,28.70
2022-08-29T16:07:38.552Z,28.00
2022-08-29T16:20:50.388Z,26.90
2022-08-29T16:35:12.758Z,25.30
2022-08-29T16:45:46.630Z,24.90
2022-08-29T16:53:02.429Z,24.60
2022-08-29T17:12:32.879Z,23.80
2022-08-29T17:19:51.860Z,23.60
